Time;durP1;ratioP1;P1;durP2;ratioP2;P2;SDS_P1;SDS_P2;PMS_P1;PMS_P2;Temp;Humidity;BMP_temperature;BMP_pressure;BME280_temperature;BME280_humidity;BME280_pressure;Samples;Min_cycle;Max_cycle;Signal;HPM_P1;HPM_P2
2021/06/10 00:01:30;;;;;;;27.58;24.63;;;18.60;67.90;;;;;;5139542;27;20035;-78
2021/06/10 00:03:56;;;;;;;27.88;24.88;;;18.60;68.00;;;;;;5153017;27;20098;-79
2021/06/10 00:06:22;;;;;;;27.20;24.60;;;18.60;68.10;;;;;;5143295;27;20106;-81
2021/06/10 00:08:48;;;;;;;26.35;23.88;;;18.50;68.10;;;;;;5143396;27;20043;-78
2021/06/10 00:11:13;;;;;;;27.73;24.63;;;18.50;68.20;;;;;;5142978;27;20439;-78
2021/06/10 00:13:39;;;;;;;28.08;25.38;;;18.40;68.30;;;;;;5142755;27;20042;-78
2021/06/10 00:16:06;;;;;;;27.65;24.80;;;18.40;68.30;;;;;;5152607;27;20050;-79
2021/06/10 00:18:31;;;;;;;27.95;25.02;;;18.40;68.40;;;;;;5105479;27;20122;-79
2021/06/10 00:20:57;;;;;;;27.33;24.48;;;18.40;68.50;;;;;;5105843;27;20527;-78
2021/06/10 00:23:23;;;;;;;28.73;25.98;;;18.30;68.60;;;;;;5122895;27;20489;-81
2021/06/10 00:25:49;;;;;;;26.55;23.80;;;18.30;68.70;;;;;;5122142;27;20122;-79
2021/06/10 00:28:15;;;;;;;27.58;24.67;;;18.30;68.80;;;;;;5139379;27;20158;-78
2021/06/10 00:30:40;;;;;;;27.40;24.60;;;18.20;68.80;;;;;;5158084;27;20042;-79
2021/06/10 00:33:07;;;;;;;28.08;25.17;;;18.20;69.00;;;;;;5123226;27;20063;-79
2021/06/10 00:35:33;;;;;;;26.92;24.23;;;18.20;69.10;;;;;;5122387;27;20042;-80
2021/06/10 00:38:00;;;;;;;28.35;25.52;;;18.10;69.10;;;;;;5158285;27;20121;-78
2021/06/10 00:40:30;;;;;;;28.20;24.83;;;18.10;70.00;;;;;;5105309;27;20547;-81
2021/06/10 00:42:58;;;;;;;28.58;25.65;;;18.10;69.30;;;;;;5122962;27;20041;-78
2021/06/10 00:45:24;;;;;;;29.40;25.13;;;18.00;69.30;;;;;;5123189;27;20039;-79
2021/06/10 00:47:50;;;;;;;27.65;25.00;;;18.00;69.40;;;;;;5122121;27;20442;-79
2021/06/10 00:50:21;;;;;;;28.17;25.08;;;18.00;69.50;;;;;;5125918;27;20078;-79
2021/06/10 00:52:47;;;;;;;28.70;25.80;;;18.00;69.60;;;;;;5125974;27;20049;-80
2021/06/10 00:55:13;;;;;;;28.55;25.35;;;18.00;69.70;;;;;;5143528;27;20045;-80
2021/06/10 00:57:39;;;;;;;30.25;27.05;;;17.90;69.70;;;;;;5135720;27;20043;-79
2021/06/10 01:00:07;;;;;;;28.48;25.40;;;17.90;69.70;;;;;;5105792;27;20046;-79
2021/06/10 01:02:33;;;;;;;30.30;27.00;;;17.90;69.80;;;;;;5122435;27;20046;-80
2021/06/10 01:05:00;;;;;;;30.52;27.02;;;17.80;69.90;;;;;;5139584;27;20069;-79
2021/06/10 01:07:57;;;;;;;29.45;26.45;;;17.80;69.90;;;;;;5123076;27;20083;-78
2021/06/10 01:10:32;;;;;;;31.75;27.58;;;17.80;69.90;;;;;;5125058;27;20058;-79
2021/06/10 01:13:11;;;;;;;30.48;27.17;;;17.70;69.90;;;;;;5138531;27;20094;-79
2021/06/10 01:15:42;;;;;;;30.17;26.98;;;17.70;70.10;;;;;;5120895;27;20043;-80
2021/06/10 01:18:09;;;;;;;31.30;27.73;;;17.60;70.20;;;;;;5122902;27;20091;-79
2021/06/10 01:20:35;;;;;;;31.67;28.55;;;17.60;71.00;;;;;;5088759;27;20076;-83
2021/06/10 01:23:08;;;;;;;33.53;30.00;;;17.60;70.40;;;;;;5105540;27;20035;-79
2021/06/10 01:25:34;;;;;;;32.65;28.20;;;17.60;70.50;;;;;;5140051;27;20039;-82
2021/06/10 01:28:13;;;;;;;32.58;29.08;;;17.50;70.50;;;;;;5139777;27;20107;-78
2021/06/10 01:30:42;;;;;;;31.52;28.15;;;17.50;70.70;;;;;;5140209;27;20390;-80
2021/06/10 01:33:11;;;;;;;32.50;28.40;;;17.40;70.70;;;;;;5139501;27;20138;-77
2021/06/10 01:35:43;;;;;;;31.08;28.02;;;17.40;70.90;;;;;;5122364;27;20097;-81
2021/06/10 01:38:09;;;;;;;;;;;17.40;71.00;;;;;;5124328;27;20058;-77
2021/06/10 01:40:35;;;;;;;30.55;27.35;;;17.30;70.80;;;;;;5143802;27;19919;-82
2021/06/10 01:43:00;;;;;;;32.10;28.75;;;17.30;70.90;;;;;;5109065;27;20039;-77
2021/06/10 01:45:27;;;;;;;31.48;28.15;;;17.30;71.00;;;;;;5126138;27;20050;-79
2021/06/10 01:47:53;;;;;;;31.83;28.52;;;17.30;71.10;;;;;;5125547;27;20038;-78
2021/06/10 01:50:20;;;;;;;32.90;29.40;;;17.30;71.20;;;;;;5126286;27;20039;-79
2021/06/10 01:52:46;;;;;;;34.90;30.50;;;17.20;71.20;;;;;;5109399;27;20050;-78
2021/06/10 01:55:14;;;;;;;32.45;28.95;;;17.20;71.30;;;;;;5126936;27;20039;-79
2021/06/10 01:57:41;;;;;;;34.40;30.70;;;17.10;71.30;;;;;;5126569;27;20050;-80
2021/06/10 02:00:11;;;;;;;34.08;30.45;;;17.10;71.40;;;;;;5127345;27;20043;-79
2021/06/10 02:02:37;;;;;;;34.58;30.83;;;17.10;71.50;;;;;;5126881;27;20114;-83
2021/06/10 02:05:07;;;;;;;32.63;29.30;;;17.10;71.60;;;;;;5126794;27;20047;-80
2021/06/10 02:07:40;;;;;;;33.47;29.75;;;17.10;71.70;;;;;;5128026;27;20049;-79
2021/06/10 02:10:09;;;;;;;34.63;31.08;;;17.00;71.70;;;;;;5111437;27;20057;-80
2021/06/10 02:12:36;;;;;;;33.17;29.58;;;17.00;71.80;;;;;;5127277;27;20035;-79
2021/06/10 02:15:06;;;;;;;35.22;31.48;;;16.90;71.80;;;;;;5144244;27;20050;-79
2021/06/10 02:17:33;;;;;;;33.25;29.65;;;16.90;72.00;;;;;;5110717;27;20039;-79
2021/06/10 02:19:59;;;;;;;32.10;28.50;;;16.90;72.00;;;;;;5126271;27;20318;-81
2021/06/10 02:22:25;;;;;;;33.22;29.63;;;16.90;72.10;;;;;;5126961;27;20162;-79
2021/06/10 02:24:52;;;;;;;33.03;29.63;;;16.80;72.10;;;;;;5125915;27;20137;-82
2021/06/10 02:27:18;;;;;;;32.72;29.25;;;16.80;72.90;;;;;;5127369;27;20045;-79
2021/06/10 02:29:44;;;;;;;31.95;28.48;;;16.80;72.20;;;;;;5126831;27;20102;-84
2021/06/10 02:32:10;;;;;;;32.83;29.27;;;16.80;72.20;;;;;;5127792;27;20041;-79
2021/06/10 02:34:36;;;;;;;32.70;29.30;;;16.70;72.20;;;;;;5145698;27;20393;-79
2021/06/10 02:37:02;;;;;;;32.80;29.48;;;16.70;72.30;;;;;;5127830;27;20087;-79
2021/06/10 02:39:29;;;;;;;35.00;31.23;;;16.70;72.40;;;;;;5128338;27;20039;-79
2021/06/10 02:41:57;;;;;;;34.72;30.67;;;16.60;72.50;;;;;;5110032;27;20046;-79
2021/06/10 02:44:26;;;;;;;34.25;30.33;;;16.60;72.60;;;;;;5110451;27;20054;-79
2021/06/10 02:46:53;;;;;;;36.45;30.27;;;16.60;72.60;;;;;;5143513;27;20121;-80
2021/06/10 02:49:19;;;;;;;36.90;31.13;;;16.60;72.70;;;;;;5134119;27;20042;-79
2021/06/10 02:51:47;;;;;;;34.30;29.80;;;16.50;72.70;;;;;;5148219;27;20402;-84
2021/06/10 02:54:19;;;;;;;38.50;31.55;;;16.50;72.80;;;;;;5134320;27;20057;-80
2021/06/10 02:56:45;;;;;;;34.33;30.60;;;16.50;72.90;;;;;;5131123;27;20085;-85
2021/06/10 02:59:11;;;;;;;34.28;30.67;;;16.50;72.90;;;;;;5165639;27;20042;-80
2021/06/10 03:01:40;;;;;;;36.22;32.53;;;16.40;73.00;;;;;;5149317;27;20042;-79
2021/06/10 03:04:25;;;;;;;36.03;32.17;;;16.40;73.20;;;;;;5140879;27;20070;-79
2021/06/10 03:06:52;;;;;;;37.00;32.88;;;16.40;73.20;;;;;;5148403;27;20050;-80
2021/06/10 03:09:19;;;;;;;37.70;33.70;;;16.40;73.40;;;;;;5166594;27;20046;-79
2021/06/10 03:11:46;;;;;;;39.63;34.55;;;16.40;73.40;;;;;;5148891;27;20192;-83
2021/06/10 03:14:12;;;;;;;38.38;34.45;;;16.30;73.60;;;;;;5131446;27;20066;-79
2021/06/10 03:16:38;;;;;;;37.97;33.90;;;16.30;73.70;;;;;;5148840;27;20556;-79
2021/06/10 03:19:05;;;;;;;39.40;34.92;;;16.30;73.80;;;;;;5148438;27;20483;-78
2021/06/10 03:21:31;;;;;;;39.15;34.97;;;16.30;73.90;;;;;;5131483;27;20046;-79
2021/06/10 03:23:57;;;;;;;37.55;33.58;;;16.30;73.90;;;;;;5148047;27;20045;-78
2021/06/10 03:26:23;;;;;;;38.78;34.67;;;16.30;74.00;;;;;;5128543;27;20043;-79
2021/06/10 03:28:49;;;;;;;37.80;33.95;;;16.20;74.00;;;;;;5143845;27;20042;-83
2021/06/10 03:31:15;;;;;;;41.90;34.10;;;16.20;74.00;;;;;;5145741;27;20433;-79
2021/06/10 03:33:43;;;;;;;39.28;34.75;;;16.20;74.00;;;;;;5147352;27;20042;-79
2021/06/10 03:36:09;;;;;;;38.33;34.42;;;16.20;74.10;;;;;;5130629;27;20150;-78
2021/06/10 03:38:35;;;;;;;38.55;33.83;;;16.20;74.10;;;;;;5130839;27;20436;-79
2021/06/10 03:41:01;;;;;;;45.63;36.25;;;16.20;74.20;;;;;;5147346;27;20053;-78
2021/06/10 03:43:27;;;;;;;39.22;35.17;;;16.10;74.20;;;;;;5113370;27;20054;-78
2021/06/10 03:45:53;;;;;;;39.30;35.10;;;16.10;74.20;;;;;;5146373;27;20053;-80
2021/06/10 03:48:19;;;;;;;41.83;35.83;;;16.10;74.30;;;;;;5164160;27;20046;-77
2021/06/10 03:50:45;;;;;;;41.13;36.72;;;16.10;74.30;;;;;;5147621;27;20041;-78
2021/06/10 03:53:10;;;;;;;41.50;36.42;;;16.10;74.40;;;;;;5146553;27;20038;-78
2021/06/10 03:55:36;;;;;;;44.30;38.00;;;16.00;74.40;;;;;;5130436;27;20046;-79
2021/06/10 03:58:03;;;;;;;43.17;38.33;;;16.00;74.40;;;;;;5147139;27;20038;-79
2021/06/10 04:00:29;;;;;;;41.65;37.15;;;16.10;74.60;;;;;;5147426;27;20042;-78
2021/06/10 04:02:59;;;;;;;41.38;37.08;;;16.10;74.70;;;;;;5129545;27;20083;-79
2021/06/10 04:05:30;;;;;;;42.95;38.13;;;16.00;74.60;;;;;;5148769;27;20046;-78
2021/06/10 04:08:11;;;;;;;45.10;40.35;;;16.00;74.70;;;;;;5166420;27;20107;-78
2021/06/10 04:10:56;;;;;;;44.50;39.80;;;16.00;74.70;;;;;;5167766;27;20155;-82
2021/06/10 04:13:22;;;;;;;44.08;39.45;;;16.00;74.80;;;;;;5147471;27;20042;-78
2021/06/10 04:16:08;;;;;;;46.45;38.42;;;16.00;74.80;;;;;;5153066;27;20042;-78
2021/06/10 04:18:34;;;;;;;43.67;38.92;;;16.00;74.80;;;;;;5164222;27;20092;-78
2021/06/10 04:21:03;;;;;;;43.08;38.55;;;16.00;75.00;;;;;;5129534;27;20054;-78
2021/06/10 04:23:31;;;;;;;42.80;38.15;;;16.00;75.10;;;;;;5147623;27;20390;-78
2021/06/10 04:25:57;;;;;;;48.90;40.33;;;16.00;75.20;;;;;;5163432;27;20050;-81
2021/06/10 04:28:22;;;;;;;45.65;39.42;;;16.00;75.30;;;;;;5146280;27;20038;-79
2021/06/10 04:30:48;;;;;;;43.83;39.13;;;16.00;75.40;;;;;;5163994;27;20174;-79
2021/06/10 04:33:14;;;;;;;46.15;40.65;;;16.00;75.50;;;;;;5128638;27;20075;-78
2021/06/10 04:35:40;;;;;;;47.22;41.88;;;16.00;75.60;;;;;;5146248;27;20073;-78
2021/06/10 04:38:06;;;;;;;50.35;43.55;;;16.00;75.60;;;;;;5163199;27;20097;-78
2021/06/10 04:40:33;;;;;;;45.78;40.80;;;16.00;75.70;;;;;;5163661;27;20070;-78
2021/06/10 04:43:03;;;;;;;49.30;42.83;;;16.00;75.90;;;;;;5146281;27;20041;-79
2021/06/10 04:45:34;;;;;;;49.38;42.13;;;16.00;75.90;;;;;;5182025;27;20067;-79
2021/06/10 04:48:02;;;;;;;49.88;43.25;;;16.00;76.00;;;;;;5146373;27;20077;-81
2021/06/10 04:50:28;;;;;;;50.35;44.92;;;16.10;76.10;;;;;;5146704;27;20145;-78
2021/06/10 04:52:55;;;;;;;49.72;42.63;;;16.10;76.20;;;;;;5163505;27;20038;-78
2021/06/10 04:55:21;;;;;;;50.58;42.15;;;16.10;76.30;;;;;;5146083;27;20638;-78
2021/06/10 04:57:52;;;;;;;48.53;41.38;;;16.10;76.30;;;;;;5147867;27;20042;-78
2021/06/10 05:00:20;;;;;;;49.47;43.58;;;16.10;76.20;;;;;;5128987;27;20277;-79
2021/06/10 05:02:46;;;;;;;51.95;44.88;;;16.10;76.30;;;;;;5145729;27;20059;-79
2021/06/10 05:05:12;;;;;;;51.38;44.63;;;16.20;76.50;;;;;;5162651;27;20110;-79
2021/06/10 05:07:43;;;;;;;49.30;43.92;;;16.20;76.60;;;;;;5130045;27;20062;-79
2021/06/10 05:10:09;;;;;;;52.72;44.22;;;16.20;76.70;;;;;;5145332;27;20030;-78
2021/06/10 05:12:39;;;;;;;50.35;44.25;;;16.20;76.70;;;;;;5129675;27;20039;-79
2021/06/10 05:15:08;;;;;;;49.95;43.70;;;16.20;76.80;;;;;;5167299;27;20034;-82
2021/06/10 05:17:34;;;;;;;50.83;44.58;;;16.20;76.90;;;;;;5145844;27;20050;-79
2021/06/10 05:20:00;;;;;;;50.95;44.78;;;16.20;76.80;;;;;;5146419;27;20046;-81
2021/06/10 05:22:28;;;;;;;55.75;47.08;;;16.30;76.90;;;;;;5129552;27;20046;-78
2021/06/10 05:24:55;;;;;;;52.30;46.63;;;16.30;77.90;;;;;;5143753;27;20086;-78
2021/06/10 05:27:23;;;;;;;55.45;47.20;;;16.30;77.20;;;;;;5133435;27;20064;-81
2021/06/10 05:29:49;;;;;;;52.38;45.08;;;16.30;77.20;;;;;;5132890;27;21065;-80
2021/06/10 05:32:15;;;;;;;52.67;46.38;;;16.30;77.30;;;;;;5154519;27;20042;-80
2021/06/10 05:34:43;;;;;;;50.90;44.22;;;16.30;77.30;;;;;;5136008;27;20035;-80
2021/06/10 05:37:08;;;;;;;54.53;47.67;;;16.40;77.00;;;;;;5135229;27;20055;-82
2021/06/10 05:39:34;;;;;;;49.80;43.05;;;16.30;77.20;;;;;;5134204;27;20038;-79
2021/06/10 05:42:00;;;;;;;46.42;41.28;;;16.40;77.10;;;;;;5148736;27;20045;-79
2021/06/10 05:44:28;;;;;;;46.83;40.03;;;16.40;76.90;;;;;;5135994;27;20117;-80
2021/06/10 05:46:54;;;;;;;45.03;40.13;;;16.40;76.50;;;;;;5137648;27;20053;-79
2021/06/10 05:49:19;;;;;;;45.70;38.90;;;16.50;76.30;;;;;;5134325;27;20031;-79
2021/06/10 05:51:45;;;;;;;45.60;39.15;;;16.50;76.40;;;;;;5117517;27;20043;-80
2021/06/10 05:54:11;;;;;;;43.92;37.53;;;16.50;76.40;;;;;;5161886;27;20038;-81
2021/06/10 05:56:37;;;;;;;46.13;41.10;;;16.50;76.10;;;;;;5127505;27;20077;-81
2021/06/10 05:59:03;;;;;;;44.22;38.05;;;16.50;76.50;;;;;;5134129;27;20042;-82
2021/06/10 06:01:30;;;;;;;43.47;38.20;;;16.50;76.80;;;;;;5134744;27;20045;-83
2021/06/10 06:03:58;;;;;;;48.35;40.72;;;16.60;77.50;;;;;;5136721;27;20047;-88
2021/06/10 06:06:25;;;;;;;41.28;35.67;;;16.70;77.90;;;;;;5110326;27;20070;-83
2021/06/10 06:08:51;;;;;;;35.15;31.40;;;16.70;77.30;;;;;;5124893;27;20045;-82
2021/06/10 06:11:18;;;;;;;38.22;32.35;;;16.80;76.60;;;;;;5132953;27;20039;-88
2021/06/10 06:13:49;;;;;;;32.13;27.35;;;16.90;76.40;;;;;;5138499;27;20117;-88
2021/06/10 06:16:18;;;;;;;29.45;26.25;;;16.90;75.80;;;;;;5157683;27;20145;-87
2021/06/10 06:18:45;;;;;;;33.85;29.55;;;16.90;75.50;;;;;;5151413;27;20042;-88
2021/06/10 06:21:11;;;;;;;35.38;31.05;;;16.90;75.30;;;;;;5143612;27;20046;-83
2021/06/10 06:23:43;;;;;;;34.03;30.08;;;17.00;75.10;;;;;;5113591;27;20175;-86
2021/06/10 06:26:09;;;;;;;34.88;31.10;;;17.00;75.00;;;;;;5135724;27;20030;-84
2021/06/10 06:28:40;;;;;;;32.17;27.70;;;17.10;75.00;;;;;;5152218;27;20034;-86
2021/06/10 06:31:08;;;;;;;39.40;34.63;;;17.20;74.60;;;;;;5133265;27;20042;-87
2021/06/10 06:33:36;;;;;;;39.13;33.92;;;17.20;74.60;;;;;;5170812;27;20070;-85
2021/06/10 06:36:04;;;;;;;36.58;32.65;;;17.30;74.80;;;;;;5149396;27;20053;-82
2021/06/10 06:38:31;;;;;;;37.55;33.58;;;17.30;74.70;;;;;;5145477;27;20039;-84
2021/06/10 06:40:59;;;;;;;32.00;28.70;;;17.30;74.50;;;;;;5159246;27;20034;-83
2021/06/10 06:43:30;;;;;;;32.75;29.48;;;17.40;74.50;;;;;;5179555;27;20049;-87
2021/06/10 06:45:57;;;;;;;;;;;17.50;74.50;;;;;;5143400;27;20037;-83
2021/06/10 06:48:23;;;;;;;32.67;29.15;;;17.50;74.80;;;;;;5140501;27;20379;-83
2021/06/10 06:50:56;;;;;;;26.88;23.52;;;17.60;74.20;;;;;;5138495;27;20370;-85
2021/06/10 06:53:30;;;;;;;28.30;21.55;;;17.70;74.20;;;;;;5165885;27;20046;-83
2021/06/10 06:56:00;;;;;;;30.27;23.25;;;17.80;73.90;;;;;;5165973;27;20046;-83
2021/06/10 06:58:31;;;;;;;24.45;21.98;;;17.90;73.60;;;;;;5165261;27;20038;-80
2021/06/10 07:01:14;;;;;;;26.00;23.35;;;18.00;73.10;;;;;;5182782;27;20053;-85
2021/06/10 07:03:39;;;;;;;30.38;27.02;;;18.00;72.80;;;;;;5164614;27;20050;-82
2021/06/10 07:06:06;;;;;;;30.33;27.33;;;18.10;72.50;;;;;;5180341;27;20101;-80
2021/06/10 07:08:41;;;;;;;28.80;25.67;;;18.10;72.00;;;;;;5179027;27;20193;-83
2021/06/10 07:11:07;;;;;;;26.63;24.00;;;18.10;72.00;;;;;;5162039;27;20046;-84
2021/06/10 07:13:36;;;;;;;28.38;24.73;;;18.10;71.90;;;;;;5131418;27;20554;-82
2021/06/10 07:16:05;;;;;;;22.98;20.67;;;18.10;71.80;;;;;;5148530;27;20045;-79
2021/06/10 07:18:32;;;;;;;21.02;18.58;;;18.20;71.90;;;;;;5162842;27;20042;-80
2021/06/10 07:21:00;;;;;;;22.73;20.40;;;18.30;72.00;;;;;;5162631;27;20062;-79
2021/06/10 07:23:27;;;;;;;26.98;20.40;;;18.40;71.90;;;;;;5143966;27;20058;-78
2021/06/10 07:25:55;;;;;;;19.05;17.10;;;18.40;71.70;;;;;;5179206;27;20170;-79
2021/06/10 07:28:21;;;;;;;21.27;17.15;;;18.50;71.50;;;;;;5178205;27;20604;-84
2021/06/10 07:30:48;;;;;;;21.33;18.13;;;18.50;71.40;;;;;;5151190;27;20045;-77
2021/06/10 07:33:15;;;;;;;16.33;14.65;;;18.60;71.20;;;;;;5121605;27;20051;-79
2021/06/10 07:35:42;;;;;;;21.30;18.95;;;18.70;71.00;;;;;;5157522;27;20057;-80
2021/06/10 07:38:14;;;;;;;21.45;19.20;;;18.70;70.60;;;;;;5159427;27;20075;-77
2021/06/10 07:40:43;;;;;;;22.05;19.60;;;18.80;70.30;;;;;;5141085;27;20046;-82
2021/06/10 07:43:09;;;;;;;19.27;17.27;;;18.80;69.90;;;;;;5124055;27;20042;-85
2021/06/10 07:45:36;;;;;;;24.02;21.63;;;18.80;69.80;;;;;;5109270;27;20067;-83
2021/06/10 07:48:03;;;;;;;23.38;21.00;;;18.90;69.60;;;;;;5134642;27;20415;-84
2021/06/10 07:50:29;;;;;;;22.35;19.20;;;18.90;69.40;;;;;;5134236;27;20046;-83
2021/06/10 07:52:55;;;;;;;20.42;18.25;;;19.00;69.40;;;;;;5181616;27;20039;-83
2021/06/10 07:55:23;;;;;;;22.58;19.27;;;19.00;69.40;;;;;;5156177;27;20124;-82
2021/06/10 07:57:50;;;;;;;21.50;17.83;;;19.10;69.40;;;;;;5138204;27;20105;-82
2021/06/10 08:00:16;;;;;;;22.23;19.88;;;19.10;69.20;;;;;;5150165;27;20054;-84
2021/06/10 08:02:42;;;;;;;22.52;19.92;;;19.20;69.10;;;;;;5149368;27;20359;-83
2021/06/10 08:05:11;;;;;;;20.52;18.15;;;19.20;68.90;;;;;;5153405;27;20402;-83
2021/06/10 08:07:37;;;;;;;19.80;17.77;;;19.30;68.90;;;;;;5155281;27;20143;-81
2021/06/10 08:10:04;;;;;;;18.65;16.77;;;19.30;68.80;;;;;;5145377;27;20035;-82
2021/06/10 08:12:30;;;;;;;18.55;16.60;;;19.40;68.60;;;;;;5159558;27;20134;-84
2021/06/10 08:14:57;;;;;;;20.95;18.67;;;19.40;68.50;;;;;;5154759;27;20042;-82
2021/06/10 08:17:23;;;;;;;18.30;16.38;;;19.50;68.30;;;;;;5152479;27;20038;-83
2021/06/10 08:19:50;;;;;;;19.92;17.88;;;19.60;68.10;;;;;;5161083;27;20039;-81
2021/06/10 08:22:17;;;;;;;20.08;17.92;;;19.60;68.00;;;;;;5161102;27;20125;-82
2021/06/10 08:24:42;;;;;;;20.95;15.73;;;19.70;67.90;;;;;;5124188;27;20042;-81
2021/06/10 08:27:08;;;;;;;16.25;14.75;;;19.70;67.70;;;;;;5159759;27;20433;-82
2021/06/10 08:29:34;;;;;;;20.48;18.27;;;19.80;68.30;;;;;;5160489;27;20049;-83
2021/06/10 08:32:04;;;;;;;17.85;16.05;;;19.80;67.50;;;;;;5159886;27;20050;-79
2021/06/10 08:34:29;;;;;;;19.55;16.95;;;19.90;67.60;;;;;;5157967;27;20129;-83
2021/06/10 08:36:59;;;;;;;17.33;15.52;;;20.00;67.40;;;;;;5159342;27;20073;-79
2021/06/10 08:39:24;;;;;;;19.33;16.60;;;20.10;67.30;;;;;;5158478;27;20383;-83
2021/06/10 08:41:50;;;;;;;19.60;16.88;;;20.10;67.20;;;;;;5160579;27;20038;-80
2021/06/10 08:44:17;;;;;;;21.85;18.35;;;20.20;67.10;;;;;;5158582;27;20054;-77
2021/06/10 08:46:42;;;;;;;27.38;15.40;;;20.30;67.00;;;;;;5137844;27;20380;-86
2021/06/10 08:49:09;;;;;;;19.55;17.50;;;20.30;66.80;;;;;;5137772;27;20070;-85
2021/06/10 08:51:37;;;;;;;20.73;17.15;;;20.40;66.50;;;;;;5144083;27;20102;-85
2021/06/10 08:54:03;;;;;;;21.70;18.40;;;20.50;66.10;;;;;;5145068;27;20479;-86
2021/06/10 08:56:30;;;;;;;21.30;18.65;;;20.60;65.80;;;;;;5120647;27;20039;-81
2021/06/10 08:58:58;;;;;;;21.40;19.02;;;20.60;65.60;;;;;;5155595;27;20043;-82
2021/06/10 09:01:24;;;;;;;24.00;21.45;;;20.70;64.90;;;;;;5138612;27;20059;-82
2021/06/10 09:03:53;;;;;;;20.88;18.77;;;20.80;64.80;;;;;;5139784;27;20047;-82
2021/06/10 09:06:19;;;;;;;23.33;17.85;;;20.80;64.70;;;;;;5146184;27;20080;-83
2021/06/10 09:08:49;;;;;;;23.10;17.77;;;20.90;64.50;;;;;;5143176;27;20042;-82
2021/06/10 09:11:19;;;;;;;21.35;16.83;;;21.00;64.20;;;;;;5141022;27;20409;-82
2021/06/10 09:13:53;;;;;;;18.25;15.55;;;21.10;63.80;;;;;;5141003;27;20482;-80
2021/06/10 09:16:32;;;;;;;17.98;16.23;;;21.20;63.40;;;;;;5125687;27;20061;-80
2021/06/10 09:19:20;;;;;;;18.95;16.98;;;21.30;62.80;;;;;;5173091;27;20046;-78
2021/06/10 09:21:58;;;;;;;21.15;16.38;;;21.40;62.70;;;;;;5126578;27;20039;-79
2021/06/10 09:24:32;;;;;;;20.23;18.23;;;21.50;62.40;;;;;;5130312;27;20050;-74
2021/06/10 09:26:59;;;;;;;20.55;18.38;;;21.60;61.60;;;;;;5156736;27;20607;-75
2021/06/10 09:29:44;;;;;;;19.17;17.05;;;21.70;61.40;;;;;;5143598;27;20045;-82
2021/06/10 09:32:19;;;;;;;20.65;18.55;;;21.80;61.00;;;;;;5144903;27;20454;-79
2021/06/10 09:34:58;;;;;;;21.10;17.02;;;21.90;60.80;;;;;;5161220;27;20045;-76
2021/06/10 09:37:33;;;;;;;20.85;18.60;;;22.00;60.40;;;;;;5162430;27;20139;-83
2021/06/10 09:40:07;;;;;;;19.85;15.88;;;22.10;59.80;;;;;;5125896;27;20061;-80
2021/06/10 09:42:35;;;;;;;16.80;14.82;;;22.20;59.80;;;;;;5123687;27;20372;-75
2021/06/10 09:45:04;;;;;;;13.70;12.27;;;22.30;59.30;;;;;;5132753;27;20039;-76
2021/06/10 09:47:39;;;;;;;16.95;11.30;;;22.40;59.00;;;;;;5151495;27;20178;-76
2021/06/10 09:50:37;;;;;;;14.68;12.60;;;22.40;58.20;;;;;;5150497;27;20379;-77
2021/06/10 09:53:08;;;;;;;13.13;10.82;;;22.60;58.20;;;;;;5152411;27;20027;-77
2021/06/10 09:55:53;;;;;;;14.05;11.88;;;22.70;58.00;;;;;;5138644;27;20054;-76
2021/06/10 09:58:35;;;;;;;12.45;10.65;;;22.80;57.00;;;;;;5113502;27;20065;-75
2021/06/10 10:01:11;;;;;;;15.43;12.95;;;22.90;56.70;;;;;;5155941;27;20039;-77
2021/06/10 10:03:42;;;;;;;14.35;12.93;;;23.00;56.30;;;;;;5111888;27;20038;-76
2021/06/10 10:06:29;;;;;;;12.50;9.73;;;23.10;55.90;;;;;;5176923;27;20046;-77
2021/06/10 10:09:05;;;;;;;12.05;8.82;;;23.20;55.60;;;;;;5129521;27;20074;-74
2021/06/10 10:11:32;;;;;;;11.65;9.32;;;23.30;54.70;;;;;;5125754;27;20038;-75
2021/06/10 10:13:59;;;;;;;10.95;8.98;;;23.40;54.80;;;;;;5124534;27;20065;-76
2021/06/10 10:16:32;;;;;;;9.05;8.10;;;23.50;54.40;;;;;;5142369;27;20061;-76
2021/06/10 10:19:02;;;;;;;12.30;9.68;;;23.70;54.20;;;;;;5142323;27;20042;-75
2021/06/10 10:21:29;;;;;;;10.18;8.88;;;23.80;53.50;;;;;;5142420;27;20039;-75
2021/06/10 10:24:04;;;;;;;12.68;9.10;;;23.90;52.70;;;;;;5158412;27;20110;-75
2021/06/10 10:26:30;;;;;;;9.25;8.35;;;24.00;52.80;;;;;;5160219;27;20047;-78
2021/06/10 10:28:58;;;;;;;12.95;9.60;;;24.10;52.70;;;;;;5141016;27;20081;-76
2021/06/10 10:31:27;;;;;;;8.88;7.72;;;24.20;52.30;;;;;;5120567;27;20039;-74
2021/06/10 10:33:53;;;;;;;10.32;7.47;;;24.30;52.90;;;;;;5120831;27;20049;-76
2021/06/10 10:36:44;;;;;;;8.73;7.75;;;24.40;51.50;;;;;;5137847;27;20133;-76
2021/06/10 10:39:10;;;;;;;8.67;6.93;;;24.50;51.80;;;;;;5132149;27;20078;-76
2021/06/10 10:41:51;;;;;;;10.35;7.90;;;24.60;51.60;;;;;;5120383;27;20519;-75
2021/06/10 10:44:22;;;;;;;;;;;24.80;51.20;;;;;;5105338;27;20051;-74
2021/06/10 10:47:02;;;;;;;9.30;7.97;;;24.90;51.80;;;;;;5137359;27;19962;-77
2021/06/10 10:49:37;;;;;;;10.45;8.75;;;25.00;50.50;;;;;;5121409;27;20042;-76
2021/06/10 10:52:13;;;;;;;12.52;9.27;;;25.10;50.50;;;;;;5137117;27;20109;-74
2021/06/10 10:54:39;;;;;;;8.23;7.22;;;25.30;50.40;;;;;;5160340;27;20039;-75
2021/06/10 10:57:05;;;;;;;10.93;8.13;;;25.40;50.70;;;;;;5166108;27;20044;-75
2021/06/10 10:59:41;;;;;;;9.88;7.20;;;25.60;50.40;;;;;;5121035;27;20481;-74
2021/06/10 11:02:11;;;;;;;7.05;6.32;;;25.80;49.80;;;;;;5119707;27;20034;-76
2021/06/10 11:04:52;;;;;;;8.95;6.38;;;25.80;49.30;;;;;;5102302;27;20061;-75
2021/06/10 11:07:33;;;;;;;7.97;7.05;;;26.00;49.00;;;;;;5133776;27;20051;-76
2021/06/10 11:10:02;;;;;;;10.93;8.23;;;26.20;49.00;;;;;;5134940;27;20135;-75
2021/06/10 11:12:43;;;;;;;9.55;8.07;;;26.30;48.40;;;;;;5135021;27;20781;-77
2021/06/10 11:15:16;;;;;;;8.73;7.82;;;26.50;47.90;;;;;;5133621;27;20058;-76
2021/06/10 11:17:46;;;;;;;9.15;7.53;;;26.70;48.10;;;;;;5144155;27;20059;-79
2021/06/10 11:20:39;;;;;;;8.02;6.50;;;26.80;47.60;;;;;;5131434;27;20526;-76
2021/06/10 11:23:12;;;;;;;7.43;6.72;;;27.00;46.80;;;;;;5124091;27;20047;-79
2021/06/10 11:25:39;;;;;;;8.57;7.35;;;27.20;47.20;;;;;;5132045;27;20050;-77
2021/06/10 11:28:19;;;;;;;7.00;6.30;;;27.40;46.60;;;;;;5139326;27;20046;-76
2021/06/10 11:30:46;;;;;;;8.52;7.03;;;27.60;46.70;;;;;;5118404;27;20042;-76
2021/06/10 11:33:18;;;;;;;9.75;6.43;;;27.80;46.30;;;;;;5128781;27;20038;-77
2021/06/10 11:35:47;;;;;;;7.53;6.78;;;28.00;45.40;;;;;;5136873;27;20045;-76
2021/06/10 11:38:13;;;;;;;8.73;7.88;;;28.20;44.20;;;;;;5134269;27;20122;-75
2021/06/10 11:40:47;;;;;;;7.60;6.65;;;28.30;43.60;;;;;;5134423;27;20118;-77
2021/06/10 11:43:13;;;;;;;8.95;7.00;;;28.40;43.30;;;;;;5116667;27;20080;-76
2021/06/10 11:45:39;;;;;;;7.65;6.63;;;28.60;43.40;;;;;;5118507;27;20104;-76
2021/06/10 11:48:06;;;;;;;6.55;5.95;;;28.70;42.60;;;;;;5134532;27;20487;-76
2021/06/10 11:50:42;;;;;;;9.05;6.22;;;28.90;42.30;;;;;;5117869;27;20047;-76
2021/06/10 11:53:18;;;;;;;7.60;6.55;;;29.10;41.60;;;;;;5100876;27;20039;-76
2021/06/10 11:55:44;;;;;;;7.70;6.50;;;29.30;41.90;;;;;;5134664;27;20080;-76
2021/06/10 11:58:13;;;;;;;6.45;5.85;;;29.30;41.10;;;;;;5101214;27;20043;-76
2021/06/10 12:00:46;;;;;;;7.38;5.45;;;29.40;41.20;;;;;;5117619;27;20063;-78
2021/06/10 12:03:13;;;;;;;6.75;5.88;;;29.60;40.90;;;;;;5116220;27;20043;-78
2021/06/10 12:05:53;;;;;;;7.53;5.40;;;29.70;40.60;;;;;;5099507;27;20535;-77
2021/06/10 12:08:26;;;;;;;10.98;6.30;;;29.80;39.60;;;;;;5116195;27;20111;-76
2021/06/10 12:10:56;;;;;;;7.85;5.85;;;29.70;39.20;;;;;;5116460;27;20046;-75
2021/06/10 12:13:32;;;;;;;7.35;5.18;;;29.70;38.50;;;;;;5098473;27;20150;-76
2021/06/10 12:16:02;;;;;;;6.65;5.25;;;29.90;38.90;;;;;;5122653;27;20055;-76
2021/06/10 12:18:28;;;;;;;7.05;5.35;;;30.00;38.80;;;;;;5121813;27;20072;-79
2021/06/10 12:20:56;;;;;;;8.15;5.85;;;30.20;39.00;;;;;;5123441;27;20039;-77
2021/06/10 12:23:38;;;;;;;13.60;6.63;;;30.20;38.60;;;;;;5138521;27;20058;-79
2021/06/10 12:26:15;;;;;;;8.48;5.72;;;30.30;38.50;;;;;;5126538;27;20045;-79
2021/06/10 12:28:45;;;;;;;7.53;5.65;;;30.40;38.60;;;;;;5142394;27;20054;-80
2021/06/10 12:31:21;;;;;;;7.45;5.80;;;30.30;37.60;;;;;;5145747;27;20178;-80
2021/06/10 12:33:51;;;;;;;6.82;5.65;;;30.40;37.50;;;;;;5137953;27;20094;-80
2021/06/10 12:36:36;;;;;;;6.38;5.70;;;30.50;37.60;;;;;;5121338;27;20181;-81
2021/06/10 12:39:15;;;;;;;6.35;5.32;;;30.50;37.50;;;;;;5104884;27;20043;-79
2021/06/10 12:41:43;;;;;;;7.55;5.78;;;30.60;37.60;;;;;;5102544;27;20073;-77